createdAt,value
2023-03-02T00:00:33.554Z,-1.55
2023-03-02T00:05:36.119Z,-1.61
2023-03-02T00:10:39.073Z,-1.68
2023-03-02T00:15:41.682Z,-1.73
2023-03-02T00:20:43.747Z,-1.78
2023-03-02T00:25:45.847Z,-1.84
2023-03-02T00:30:47.905Z,-1.89
2023-03-02T00:35:50.023Z,-1.95
2023-03-02T00:40:52.263Z,-2.01
2023-03-02T00:45:55.658Z,-2.04
2023-03-02T00:51:01.477Z,-2.08
2023-03-02T00:56:04.711Z,-2.16
2023-03-02T01:01:12.417Z,-2.18
2023-03-02T01:06:17.901Z,-2.24
2023-03-02T01:11:22.678Z,-2.28
2023-03-02T01:16:24.708Z,-2.33
2023-03-02T01:21:26.801Z,-2.39
2023-03-02T01:26:28.974Z,-2.43
2023-03-02T01:31:31.479Z,-2.50
2023-03-02T01:36:34.114Z,-2.49
2023-03-02T01:41:36.424Z,-2.55
2023-03-02T01:46:38.431Z,-2.58
2023-03-02T01:51:46.269Z,-2.63
2023-03-02T01:56:48.353Z,-2.67
2023-03-02T02:07:03.687Z,-2.73
2023-03-02T02:12:06.157Z,-2.75
2023-03-02T02:17:08.856Z,-2.77
2023-03-02T02:22:12.195Z,-2.79
2023-03-02T02:27:15.218Z,-2.77
2023-03-02T02:32:30.722Z,-2.77
2023-03-02T02:37:40.110Z,-2.75
2023-03-02T02:42:48.621Z,-2.73
2023-03-02T02:47:52.758Z,-2.73
2023-03-02T02:53:05.669Z,-2.71
2023-03-02T02:58:22.424Z,-2.70
2023-03-02T03:03:31.307Z,-2.67
2023-03-02T03:08:52.282Z,-2.67
2023-03-02T03:14:16.035Z,-2.63
2023-03-02T03:19:25.825Z,-2.61
2023-03-02T03:24:29.633Z,-2.60
2023-03-02T03:29:32.874Z,-2.60
2023-03-02T03:34:41.139Z,-2.59
2023-03-02T03:39:43.985Z,-2.56
2023-03-02T03:44:46.165Z,-2.58
2023-03-02T03:49:48.176Z,-2.55
2023-03-02T03:54:50.141Z,-2.54
2023-03-02T03:59:52.177Z,-2.50
2023-03-02T04:04:54.268Z,-2.49
2023-03-02T04:10:03.892Z,-2.48
2023-03-02T04:15:09.376Z,-2.46
2023-03-02T04:20:16.923Z,-2.43
2023-03-02T04:25:27.551Z,-2.40
2023-03-02T04:30:29.940Z,-2.40
2023-03-02T04:35:32.002Z,-2.36
2023-03-02T04:40:34.052Z,-2.36
2023-03-02T04:45:36.059Z,-2.34
2023-03-02T04:50:38.711Z,-2.32
2023-03-02T04:55:41.142Z,-2.33
2023-03-02T05:00:43.205Z,-2.32
2023-03-02T05:05:45.283Z,-2.28
2023-03-02T05:10:47.334Z,-2.26
2023-03-02T05:15:51.104Z,-2.25
2023-03-02T05:20:54.663Z,-2.23
2023-03-02T05:25:57.823Z,-2.20
2023-03-02T05:31:00.180Z,-2.17
2023-03-02T05:36:02.487Z,-2.16
2023-03-02T05:41:11.864Z,-2.14
2023-03-02T05:46:15.392Z,-2.10
2023-03-02T05:51:18.091Z,-2.08
2023-03-02T05:56:22.639Z,-2.04
2023-03-02T06:01:24.656Z,-2.03
2023-03-02T06:06:26.861Z,-1.99
2023-03-02T06:11:31.484Z,-1.96
2023-03-02T06:16:34.221Z,-1.94
2023-03-02T06:21:36.781Z,-1.90
2023-03-02T06:26:38.957Z,-1.88
2023-03-02T06:31:41.252Z,-1.85
2023-03-02T06:36:43.676Z,-1.82
2023-03-02T06:41:47.232Z,-1.79
2023-03-02T06:46:50.071Z,-1.76
2023-03-02T06:51:58.364Z,-1.74
2023-03-02T06:57:01.850Z,-1.68
2023-03-02T07:02:05.042Z,-1.66
2023-03-02T07:07:07.266Z,-1.61
2023-03-02T07:12:14.524Z,-1.57
2023-03-02T07:17:17.078Z,-1.54
2023-03-02T07:22:19.138Z,-1.49
2023-03-02T07:27:21.198Z,-1.37
2023-03-02T07:32:24.207Z,-1.03
2023-03-02T07:37:31.530Z,-0.16
2023-03-02T07:42:35.632Z,1.54
2023-03-02T07:47:42.803Z,2.58
2023-03-02T07:52:58.101Z,3.44
2023-03-02T07:58:03.155Z,4.30
2023-03-02T08:03:05.558Z,4.81
2023-03-02T08:08:08.484Z,5.26
2023-03-02T08:13:10.529Z,5.82
2023-03-02T08:18:12.413Z,6.24
2023-03-02T08:23:15.112Z,6.90
2023-03-02T08:28:17.181Z,7.51
2023-03-02T08:33:19.230Z,7.79
2023-03-02T08:38:21.302Z,8.19
2023-03-02T08:43:25.677Z,8.58
2023-03-02T08:48:28.889Z,8.95
2023-03-02T08:53:34.874Z,9.40
2023-03-02T08:58:40.134Z,9.70
2023-03-02T09:03:46.616Z,10.01
2023-03-02T09:08:52.339Z,10.27
2023-03-02T09:13:55.331Z,10.56
2023-03-02T09:18:57.343Z,10.87
2023-03-02T09:23:59.638Z,11.15
2023-03-02T09:29:02.097Z,11.36
2023-03-02T09:34:05.486Z,11.64
2023-03-02T09:39:12.656Z,11.84
2023-03-02T09:44:41.269Z,12.05
2023-03-02T09:50:05.128Z,12.22
2023-03-02T09:55:23.816Z,12.34
2023-03-02T10:00:33.216Z,12.47
2023-03-02T10:05:55.603Z,12.57
2023-03-02T10:11:28.653Z,12.53
2023-03-02T10:16:48.738Z,12.64
2023-03-02T10:21:58.703Z,12.75
2023-03-02T10:27:22.606Z,12.83
2023-03-02T10:32:30.118Z,12.91
2023-03-02T10:37:32.295Z,12.98
2023-03-02T10:42:40.700Z,13.00
2023-03-02T10:47:42.818Z,13.12
2023-03-02T10:52:59.506Z,12.91
2023-03-02T10:58:20.496Z,11.50
2023-03-02T11:03:23.614Z,10.72
2023-03-02T11:08:28.424Z,10.24
2023-03-02T11:13:33.908Z,9.65
2023-03-02T11:18:46.268Z,9.22
2023-03-02T11:24:00.443Z,8.95
2023-03-02T11:29:11.854Z,8.67
2023-03-02T11:34:40.919Z,8.34
2023-03-02T11:39:54.989Z,8.02
2023-03-02T11:45:01.110Z,7.80
2023-03-02T11:50:06.462Z,7.58
2023-03-02T11:55:17.950Z,7.27
2023-03-02T12:00:38.383Z,7.12
2023-03-02T12:05:40.878Z,7.03
2023-03-02T12:10:44.601Z,6.77
2023-03-02T12:15:50.457Z,6.57
2023-03-02T12:21:01.756Z,6.47
2023-03-02T12:26:24.411Z,6.33
2023-03-02T12:31:27.218Z,8.28
2023-03-02T12:36:42.385Z,9.44
2023-03-02T12:42:00.379Z,10.46
2023-03-02T12:47:04.047Z,11.45
2023-03-02T12:52:27.811Z,12.46
2023-03-02T12:57:32.391Z,13.30
2023-03-02T13:02:37.415Z,14.13
2023-03-02T13:07:50.492Z,14.90
2023-03-02T13:12:52.758Z,15.63
2023-03-02T13:18:01.316Z,16.37
2023-03-02T13:23:03.975Z,17.04
2023-03-02T13:28:08.115Z,17.71
2023-03-02T13:33:23.615Z,18.33
2023-03-02T13:38:38.166Z,16.46
2023-03-02T13:43:40.396Z,13.98
2023-03-02T13:49:09.047Z,13.73
2023-03-02T13:54:22.661Z,14.67
2023-03-02T13:59:25.300Z,14.74
2023-03-02T14:04:27.561Z,14.71
2023-03-02T14:09:29.808Z,14.84
2023-03-02T14:14:40.558Z,14.98
2023-03-02T14:19:55.527Z,15.19
2023-03-02T14:25:01.040Z,15.77
2023-03-02T14:30:35.678Z,15.96
2023-03-02T14:35:38.034Z,15.66
2023-03-02T14:40:46.891Z,14.94
2023-03-02T14:45:50.724Z,14.54
2023-03-02T14:51:01.108Z,14.28
2023-03-02T14:56:04.207Z,14.00
2023-03-02T15:01:08.103Z,13.66
2023-03-02T15:06:25.087Z,13.35
2023-03-02T15:11:30.165Z,12.99
2023-03-02T15:16:34.980Z,12.64
2023-03-02T15:21:39.746Z,12.32
2023-03-02T15:26:53.378Z,12.02
2023-03-02T15:38:31.122Z,11.37
2023-03-02T15:43:43.283Z,11.02
2023-03-02T15:48:55.186Z,10.74
2023-03-02T15:54:04.678Z,10.43
2023-03-02T15:59:07.118Z,10.16
2023-03-02T16:04:09.706Z,9.89
2023-03-02T16:09:12.076Z,9.60
2023-03-02T16:14:16.045Z,9.34
2023-03-02T16:19:19.611Z,9.09
2023-03-02T16:24:21.789Z,8.84
2023-03-02T16:29:24.569Z,8.58
2023-03-02T16:34:27.187Z,8.29
2023-03-02T16:39:29.654Z,8.04
2023-03-02T16:44:31.501Z,7.80
2023-03-02T16:49:33.932Z,7.56
2023-03-02T16:54:36.126Z,7.33
2023-03-02T16:59:41.327Z,7.08
2023-03-02T17:04:43.615Z,6.86
2023-03-02T17:09:46.154Z,6.62
2023-03-02T17:14:49.945Z,6.45
2023-03-02T17:19:52.191Z,6.23
2023-03-02T17:25:06.725Z,6.02
2023-03-02T17:30:24.734Z,5.81
2023-03-02T17:35:45.093Z,5.59
2023-03-02T17:41:46.862Z,5.37
2023-03-02T17:46:54.050Z,5.16
2023-03-02T17:52:04.709Z,4.96
2023-03-02T17:57:09.656Z,4.78
2023-03-02T18:02:13.604Z,4.60
2023-03-02T18:07:17.671Z,4.40
2023-03-02T18:12:20.241Z,4.25
2023-03-02T18:17:25.402Z,4.09
2023-03-02T18:22:30.569Z,3.92
2023-03-02T18:27:33.908Z,3.75
2023-03-02T18:32:37.230Z,3.59
2023-03-02T18:37:45.682Z,3.46
2023-03-02T18:42:56.650Z,3.32
2023-03-02T18:53:36.179Z,3.02
2023-03-02T18:58:52.787Z,2.91
2023-03-02T19:04:21.149Z,2.76
2023-03-02T19:09:49.233Z,2.62
2023-03-02T19:14:59.827Z,2.51
2023-03-02T19:20:17.736Z,2.40
2023-03-02T19:25:31.933Z,2.26
2023-03-02T19:30:42.258Z,2.13
2023-03-02T19:35:47.090Z,2.03
2023-03-02T19:40:50.607Z,1.91
2023-03-02T19:45:58.738Z,1.78
2023-03-02T19:51:01.920Z,1.68
2023-03-02T19:56:24.769Z,1.56
2023-03-02T20:01:33.029Z,1.45
2023-03-02T20:13:08.696Z,1.21
2023-03-02T20:18:23.677Z,1.07
2023-03-02T20:23:30.899Z,0.98
2023-03-02T20:28:35.420Z,0.85
2023-03-02T20:33:52.278Z,0.76
2023-03-02T20:39:07.912Z,0.64
2023-03-02T20:44:12.832Z,0.54
2023-03-02T20:49:18.636Z,0.44
2023-03-02T20:54:36.212Z,0.33
2023-03-02T20:59:39.550Z,0.21
2023-03-02T21:04:43.652Z,0.13
2023-03-02T21:09:52.413Z,0.04
2023-03-02T21:14:55.981Z,-0.06
2023-03-02T21:19:59.747Z,-0.13
2023-03-02T21:25:02.287Z,-0.23
2023-03-02T21:30:10.648Z,-0.31
2023-03-02T21:35:23.524Z,-0.40
2023-03-02T21:40:31.262Z,-0.49
2023-03-02T21:45:37.332Z,-0.59
2023-03-02T21:50:40.860Z,-0.67
2023-03-02T21:55:46.331Z,-0.76
2023-03-02T22:00:53.925Z,-0.83
2023-03-02T22:05:56.257Z,-0.89
2023-03-02T22:10:58.293Z,-0.95
2023-03-02T22:16:14.196Z,-1.03
2023-03-02T22:21:37.602Z,-1.11
2023-03-02T22:26:54.763Z,-1.19
2023-03-02T22:32:06.738Z,-1.25
2023-03-02T22:37:19.168Z,-1.32
2023-03-02T22:42:27.511Z,-1.41
2023-03-02T22:47:29.664Z,-1.47
2023-03-02T22:52:43.387Z,-1.52
2023-03-02T22:57:45.700Z,-1.58
2023-03-02T23:02:48.380Z,-1.63
2023-03-02T23:07:51.429Z,-1.71
2023-03-02T23:12:53.433Z,-1.77
2023-03-02T23:17:59.579Z,-1.83
2023-03-02T23:23:01.551Z,-1.91
2023-03-02T23:28:05.272Z,-1.95
2023-03-02T23:33:07.699Z,-2.01
2023-03-02T23:38:09.777Z,-2.09
2023-03-02T23:43:11.958Z,-2.16
2023-03-02T23:48:14.009Z,-2.20
2023-03-02T23:53:16.184Z,-2.24
2023-03-02T23:58:18.252Z,-2.30
